sensor_id;sensor_type;location;lat;lon;timestamp;temperature;humidity
66670;DHT22;53568;52.164;4.472;2023-11-22T00:00:52;9.81;73.12
66670;DHT22;53568;52.164;4.472;2023-11-22T00:03:17;9.81;72.74
66670;DHT22;53568;52.164;4.472;2023-11-22T00:05:44;9.82;72.47
66670;DHT22;53568;52.164;4.472;2023-11-22T00:08:09;9.82;72.49
66670;DHT22;53568;52.164;4.472;2023-11-22T00:10:35;9.41;73.46
66670;DHT22;53568;52.164;4.472;2023-11-22T00:13:00;9.36;74.02
66670;DHT22;53568;52.164;4.472;2023-11-22T00:15:27;9.34;74.75
66670;DHT22;53568;52.164;4.472;2023-11-22T00:17:52;9.46;74.66
66670;DHT22;53568;52.164;4.472;2023-11-22T00:20:18;9.46;74.17
66670;DHT22;53568;52.164;4.472;2023-11-22T00:22:46;9.13;75.93
66670;DHT22;53568;52.164;4.472;2023-11-22T00:25:12;8.99;76.50
66670;DHT22;53568;52.164;4.472;2023-11-22T00:27:39;9.12;76.25
66670;DHT22;53568;52.164;4.472;2023-11-22T00:30:05;9.23;75.85
66670;DHT22;53568;52.164;4.472;2023-11-22T00:32:31;9.22;75.88
66670;DHT22;53568;52.164;4.472;2023-11-22T00:34:56;9.15;76.19
66670;DHT22;53568;52.164;4.472;2023-11-22T00:37:22;9.03;76.52
66670;DHT22;53568;52.164;4.472;2023-11-22T00:39:48;8.95;76.91
66670;DHT22;53568;52.164;4.472;2023-11-22T00:42:13;9.00;77.00
66670;DHT22;53568;52.164;4.472;2023-11-22T00:44:39;9.12;76.69
66670;DHT22;53568;52.164;4.472;2023-11-22T00:47:04;9.19;76.25
66670;DHT22;53568;52.164;4.472;2023-11-22T00:49:31;9.19;76.21
66670;DHT22;53568;52.164;4.472;2023-11-22T00:51:57;9.19;76.15
66670;DHT22;53568;52.164;4.472;2023-11-22T00:54:23;9.20;75.98
66670;DHT22;53568;52.164;4.472;2023-11-22T00:56:50;9.07;76.04
66670;DHT22;53568;52.164;4.472;2023-11-22T00:59:16;9.00;76.45
66670;DHT22;53568;52.164;4.472;2023-11-22T01:01:41;9.03;76.49
66670;DHT22;53568;52.164;4.472;2023-11-22T01:04:07;9.06;76.18
66670;DHT22;53568;52.164;4.472;2023-11-22T01:06:33;9.02;76.17
66670;DHT22;53568;52.164;4.472;2023-11-22T01:08:59;8.95;76.62
66670;DHT22;53568;52.164;4.472;2023-11-22T01:11:25;8.87;76.90
66670;DHT22;53568;52.164;4.472;2023-11-22T01:13:50;8.83;77.23
66670;DHT22;53568;52.164;4.472;2023-11-22T01:16:16;8.90;77.22
66670;DHT22;53568;52.164;4.472;2023-11-22T01:18:42;8.96;76.89
66670;DHT22;53568;52.164;4.472;2023-11-22T01:21:08;9.06;76.68
66670;DHT22;53568;52.164;4.472;2023-11-22T01:23:34;9.12;76.54
66670;DHT22;53568;52.164;4.472;2023-11-22T01:26:00;9.13;76.47
66670;DHT22;53568;52.164;4.472;2023-11-22T01:28:26;9.12;76.59
66670;DHT22;53568;52.164;4.472;2023-11-22T01:31:00;9.10;76.41
66670;DHT22;53568;52.164;4.472;2023-11-22T01:33:26;9.16;76.54
66670;DHT22;53568;52.164;4.472;2023-11-22T01:35:52;9.19;76.34
66670;DHT22;53568;52.164;4.472;2023-11-22T01:38:18;9.20;76.28
66670;DHT22;53568;52.164;4.472;2023-11-22T01:40:44;9.26;76.18
66670;DHT22;53568;52.164;4.472;2023-11-22T01:43:15;9.30;75.73
66670;DHT22;53568;52.164;4.472;2023-11-22T01:45:41;9.22;75.97
66670;DHT22;53568;52.164;4.472;2023-11-22T01:48:09;9.22;76.12
66670;DHT22;53568;52.164;4.472;2023-11-22T01:50:40;9.19;76.03
66670;DHT22;53568;52.164;4.472;2023-11-22T01:53:09;9.17;76.21
66670;DHT22;53568;52.164;4.472;2023-11-22T01:55:36;9.02;76.65
66670;DHT22;53568;52.164;4.472;2023-11-22T01:58:02;9.05;76.59
66670;DHT22;53568;52.164;4.472;2023-11-22T02:00:35;9.10;76.55
66670;DHT22;53568;52.164;4.472;2023-11-22T02:03:02;9.06;76.64
66670;DHT22;53568;52.164;4.472;2023-11-22T02:05:28;9.10;76.64
66670;DHT22;53568;52.164;4.472;2023-11-22T02:07:54;9.19;76.64
66670;DHT22;53568;52.164;4.472;2023-11-22T02:10:20;9.27;76.40
66670;DHT22;53568;52.164;4.472;2023-11-22T02:12:46;9.34;76.08
66670;DHT22;53568;52.164;4.472;2023-11-22T02:15:11;9.23;75.96
66670;DHT22;53568;52.164;4.472;2023-11-22T02:17:37;9.19;76.19
66670;DHT22;53568;52.164;4.472;2023-11-22T02:20:03;9.23;75.98
66670;DHT22;53568;52.164;4.472;2023-11-22T02:22:31;9.06;76.58
66670;DHT22;53568;52.164;4.472;2023-11-22T02:24:57;8.95;76.93
66670;DHT22;53568;52.164;4.472;2023-11-22T02:27:23;9.09;76.61
66670;DHT22;53568;52.164;4.472;2023-11-22T02:29:48;9.09;76.85
66670;DHT22;53568;52.164;4.472;2023-11-22T02:32:15;9.16;76.92
66670;DHT22;53568;52.164;4.472;2023-11-22T02:34:40;9.07;76.99
66670;DHT22;53568;52.164;4.472;2023-11-22T02:37:06;9.19;76.71
66670;DHT22;53568;52.164;4.472;2023-11-22T02:39:55;9.05;77.04
66670;DHT22;53568;52.164;4.472;2023-11-22T02:42:23;8.97;77.33
66670;DHT22;53568;52.164;4.472;2023-11-22T02:44:49;8.87;77.73
66670;DHT22;53568;52.164;4.472;2023-11-22T02:47:14;9.07;77.13
66670;DHT22;53568;52.164;4.472;2023-11-22T02:49:39;8.99;77.30
66670;DHT22;53568;52.164;4.472;2023-11-22T02:52:05;8.89;77.53
66670;DHT22;53568;52.164;4.472;2023-11-22T02:54:37;8.89;77.70
66670;DHT22;53568;52.164;4.472;2023-11-22T02:57:02;9.03;77.57
66670;DHT22;53568;52.164;4.472;2023-11-22T02:59:28;9.05;77.06
66670;DHT22;53568;52.164;4.472;2023-11-22T03:01:53;8.90;77.37
66670;DHT22;53568;52.164;4.472;2023-11-22T03:04:19;8.86;77.87
66670;DHT22;53568;52.164;4.472;2023-11-22T03:06:44;8.90;77.74
66670;DHT22;53568;52.164;4.472;2023-11-22T03:09:10;8.90;77.72
66670;DHT22;53568;52.164;4.472;2023-11-22T03:11:36;8.92;77.93
66670;DHT22;53568;52.164;4.472;2023-11-22T03:14:02;9.02;77.95
66670;DHT22;53568;52.164;4.472;2023-11-22T03:16:29;9.15;77.81
66670;DHT22;53568;52.164;4.472;2023-11-22T03:18:55;9.26;77.53
66670;DHT22;53568;52.164;4.472;2023-11-22T03:21:22;9.27;77.39
66670;DHT22;53568;52.164;4.472;2023-11-22T03:23:48;9.34;77.20
66670;DHT22;53568;52.164;4.472;2023-11-22T03:26:15;9.44;76.69
66670;DHT22;53568;52.164;4.472;2023-11-22T03:28:40;9.43;76.30
66670;DHT22;53568;52.164;4.472;2023-11-22T03:31:06;9.41;76.35
66670;DHT22;53568;52.164;4.472;2023-11-22T03:33:33;9.44;76.33
66670;DHT22;53568;52.164;4.472;2023-11-22T03:35:58;9.52;76.22
66670;DHT22;53568;52.164;4.472;2023-11-22T03:38:24;9.60;75.94
66670;DHT22;53568;52.164;4.472;2023-11-22T03:40:50;9.57;74.81
66670;DHT22;53568;52.164;4.472;2023-11-22T03:43:15;9.50;75.15
66670;DHT22;53568;52.164;4.472;2023-11-22T03:45:41;9.30;75.71
66670;DHT22;53568;52.164;4.472;2023-11-22T03:48:06;9.16;76.28
66670;DHT22;53568;52.164;4.472;2023-11-22T03:50:32;9.16;76.59
66670;DHT22;53568;52.164;4.472;2023-11-22T03:52:57;9.06;77.15
66670;DHT22;53568;52.164;4.472;2023-11-22T03:55:23;9.05;77.21
66670;DHT22;53568;52.164;4.472;2023-11-22T03:57:48;8.97;77.60
66670;DHT22;53568;52.164;4.472;2023-11-22T04:00:14;8.99;77.96
66670;DHT22;53568;52.164;4.472;2023-11-22T04:02:40;9.07;78.03
66670;DHT22;53568;52.164;4.472;2023-11-22T04:05:07;9.15;77.94
66670;DHT22;53568;52.164;4.472;2023-11-22T04:07:32;9.22;77.69
66670;DHT22;53568;52.164;4.472;2023-11-22T04:09:58;9.26;77.67
66670;DHT22;53568;52.164;4.472;2023-11-22T04:12:24;9.34;77.34
66670;DHT22;53568;52.164;4.472;2023-11-22T04:14:50;9.33;77.14
66670;DHT22;53568;52.164;4.472;2023-11-22T04:17:17;9.36;77.06
66670;DHT22;53568;52.164;4.472;2023-11-22T04:19:43;9.37;76.95
66670;DHT22;53568;52.164;4.472;2023-11-22T04:22:08;9.38;76.96
66670;DHT22;53568;52.164;4.472;2023-11-22T04:24:36;9.40;76.95
66670;DHT22;53568;52.164;4.472;2023-11-22T04:27:01;9.46;76.48
66670;DHT22;53568;52.164;4.472;2023-11-22T04:29:28;9.41;76.05
66670;DHT22;53568;52.164;4.472;2023-11-22T04:31:53;9.34;76.08
66670;DHT22;53568;52.164;4.472;2023-11-22T04:34:18;9.36;76.01
66670;DHT22;53568;52.164;4.472;2023-11-22T04:36:45;9.31;75.81
66670;DHT22;53568;52.164;4.472;2023-11-22T04:39:12;9.27;76.13
66670;DHT22;53568;52.164;4.472;2023-11-22T04:41:38;9.31;75.98
66670;DHT22;53568;52.164;4.472;2023-11-22T04:44:04;9.28;76.03
66670;DHT22;53568;52.164;4.472;2023-11-22T04:46:30;9.30;76.14
66670;DHT22;53568;52.164;4.472;2023-11-22T04:48:56;9.31;75.90
66670;DHT22;53568;52.164;4.472;2023-11-22T04:51:23;9.27;75.80
66670;DHT22;53568;52.164;4.472;2023-11-22T04:53:50;9.30;75.74
66670;DHT22;53568;52.164;4.472;2023-11-22T04:56:16;9.20;75.75
66670;DHT22;53568;52.164;4.472;2023-11-22T04:58:42;9.19;75.81
66670;DHT22;53568;52.164;4.472;2023-11-22T05:01:07;9.17;75.68
66670;DHT22;53568;52.164;4.472;2023-11-22T05:03:36;9.03;76.05
66670;DHT22;53568;52.164;4.472;2023-11-22T05:06:03;9.03;76.00
66670;DHT22;53568;52.164;4.472;2023-11-22T05:08:29;9.02;76.26
66670;DHT22;53568;52.164;4.472;2023-11-22T05:10:55;8.96;76.29
66670;DHT22;53568;52.164;4.472;2023-11-22T05:13:21;8.96;76.27
66670;DHT22;53568;52.164;4.472;2023-11-22T05:15:46;8.97;76.15
66670;DHT22;53568;52.164;4.472;2023-11-22T05:18:12;9.03;76.19
66670;DHT22;53568;52.164;4.472;2023-11-22T05:20:37;8.96;75.61
66670;DHT22;53568;52.164;4.472;2023-11-22T05:23:03;8.85;75.67
66670;DHT22;53568;52.164;4.472;2023-11-22T05:25:30;8.79;75.86
66670;DHT22;53568;52.164;4.472;2023-11-22T05:27:55;8.77;75.77
66670;DHT22;53568;52.164;4.472;2023-11-22T05:30:21;8.63;75.94
66670;DHT22;53568;52.164;4.472;2023-11-22T05:32:48;8.49;76.60
66670;DHT22;53568;52.164;4.472;2023-11-22T05:35:14;8.42;76.64
66670;DHT22;53568;52.164;4.472;2023-11-22T05:37:40;8.34;76.78
66670;DHT22;53568;52.164;4.472;2023-11-22T05:40:06;8.35;76.79
66670;DHT22;53568;52.164;4.472;2023-11-22T05:42:35;8.34;76.99
66670;DHT22;53568;52.164;4.472;2023-11-22T05:45:01;8.35;76.84
66670;DHT22;53568;52.164;4.472;2023-11-22T05:47:27;8.38;76.75
66670;DHT22;53568;52.164;4.472;2023-11-22T05:49:52;8.41;76.83
66670;DHT22;53568;52.164;4.472;2023-11-22T05:52:18;8.48;76.49
66670;DHT22;53568;52.164;4.472;2023-11-22T05:54:45;8.42;76.24
66670;DHT22;53568;52.164;4.472;2023-11-22T05:57:10;8.39;76.48
66670;DHT22;53568;52.164;4.472;2023-11-22T05:59:36;8.42;76.34
66670;DHT22;53568;52.164;4.472;2023-11-22T06:02:01;8.44;76.32
66670;DHT22;53568;52.164;4.472;2023-11-22T06:04:27;8.46;76.34
66670;DHT22;53568;52.164;4.472;2023-11-22T06:06:52;8.53;76.08
66670;DHT22;53568;52.164;4.472;2023-11-22T06:09:18;8.51;75.72
66670;DHT22;53568;52.164;4.472;2023-11-22T06:11:44;8.51;75.30
66670;DHT22;53568;52.164;4.472;2023-11-22T06:14:09;8.35;75.66
66670;DHT22;53568;52.164;4.472;2023-11-22T06:16:35;8.38;75.97
66670;DHT22;53568;52.164;4.472;2023-11-22T06:19:00;8.41;75.92
66670;DHT22;53568;52.164;4.472;2023-11-22T06:21:26;8.48;75.75
66670;DHT22;53568;52.164;4.472;2023-11-22T06:23:53;8.46;75.70
66670;DHT22;53568;52.164;4.472;2023-11-22T06:26:20;8.52;75.42
66670;DHT22;53568;52.164;4.472;2023-11-22T06:28:46;8.46;75.28
66670;DHT22;53568;52.164;4.472;2023-11-22T06:31:14;8.42;75.49
66670;DHT22;53568;52.164;4.472;2023-11-22T06:33:40;8.38;75.24
66670;DHT22;53568;52.164;4.472;2023-11-22T06:36:05;8.35;75.28
66670;DHT22;53568;52.164;4.472;2023-11-22T06:38:31;8.31;75.52
66670;DHT22;53568;52.164;4.472;2023-11-22T06:40:56;8.27;75.51
66670;DHT22;53568;52.164;4.472;2023-11-22T06:43:22;8.25;76.08
66670;DHT22;53568;52.164;4.472;2023-11-22T06:45:48;8.27;75.95
66670;DHT22;53568;52.164;4.472;2023-11-22T06:48:13;8.29;75.94
66670;DHT22;53568;52.164;4.472;2023-11-22T06:50:39;8.22;76.04
66670;DHT22;53568;52.164;4.472;2023-11-22T06:53:05;8.22;76.27
66670;DHT22;53568;52.164;4.472;2023-11-22T06:55:31;8.24;76.32
66670;DHT22;53568;52.164;4.472;2023-11-22T06:57:58;8.21;76.54
66670;DHT22;53568;52.164;4.472;2023-11-22T07:00:23;8.22;76.39
66670;DHT22;53568;52.164;4.472;2023-11-22T07:02:49;8.29;76.49
66670;DHT22;53568;52.164;4.472;2023-11-22T07:05:14;8.34;76.45
66670;DHT22;53568;52.164;4.472;2023-11-22T07:07:40;8.42;76.26
66670;DHT22;53568;52.164;4.472;2023-11-22T07:10:06;8.49;75.91
66670;DHT22;53568;52.164;4.472;2023-11-22T07:12:34;8.51;75.39
66670;DHT22;53568;52.164;4.472;2023-11-22T07:15:00;8.51;75.68
66670;DHT22;53568;52.164;4.472;2023-11-22T07:17:26;8.49;74.95
66670;DHT22;53568;52.164;4.472;2023-11-22T07:19:54;8.35;74.96
66670;DHT22;53568;52.164;4.472;2023-11-22T07:22:20;8.24;75.41
66670;DHT22;53568;52.164;4.472;2023-11-22T07:24:49;8.12;75.72
66670;DHT22;53568;52.164;4.472;2023-11-22T07:27:19;8.02;75.92
66670;DHT22;53568;52.164;4.472;2023-11-22T07:29:45;7.90;76.15
66670;DHT22;53568;52.164;4.472;2023-11-22T07:32:11;7.80;76.69
66670;DHT22;53568;52.164;4.472;2023-11-22T07:34:38;7.70;77.36
66670;DHT22;53568;52.164;4.472;2023-11-22T07:37:08;7.71;77.85
66670;DHT22;53568;52.164;4.472;2023-11-22T07:39:36;7.83;77.88
66670;DHT22;53568;52.164;4.472;2023-11-22T07:42:04;7.90;77.68
66670;DHT22;53568;52.164;4.472;2023-11-22T07:44:34;7.95;77.25
66670;DHT22;53568;52.164;4.472;2023-11-22T07:47:01;7.94;77.03
66670;DHT22;53568;52.164;4.472;2023-11-22T07:49:27;7.97;76.67
66670;DHT22;53568;52.164;4.472;2023-11-22T07:51:54;7.97;76.89
66670;DHT22;53568;52.164;4.472;2023-11-22T07:54:20;7.97;76.88
66670;DHT22;53568;52.164;4.472;2023-11-22T07:56:48;8.07;76.96
66670;DHT22;53568;52.164;4.472;2023-11-22T07:59:14;8.17;76.87
66670;DHT22;53568;52.164;4.472;2023-11-22T08:01:42;8.17;76.13
66670;DHT22;53568;52.164;4.472;2023-11-22T08:04:09;8.17;75.75
66670;DHT22;53568;52.164;4.472;2023-11-22T08:06:35;8.14;75.61
66670;DHT22;53568;52.164;4.472;2023-11-22T08:09:01;8.09;75.46
66670;DHT22;53568;52.164;4.472;2023-11-22T08:11:30;8.05;75.31
66670;DHT22;53568;52.164;4.472;2023-11-22T08:13:57;7.93;75.94
66670;DHT22;53568;52.164;4.472;2023-11-22T08:16:25;7.91;76.27
66670;DHT22;53568;52.164;4.472;2023-11-22T08:18:50;7.97;76.24
66670;DHT22;53568;52.164;4.472;2023-11-22T08:21:16;7.94;75.98
66670;DHT22;53568;52.164;4.472;2023-11-22T08:23:43;7.93;76.28
66670;DHT22;53568;52.164;4.472;2023-11-22T08:26:08;7.90;76.44
66670;DHT22;53568;52.164;4.472;2023-11-22T08:28:34;7.91;76.36
66670;DHT22;53568;52.164;4.472;2023-11-22T08:31:00;7.94;76.84
66670;DHT22;53568;52.164;4.472;2023-11-22T08:33:29;7.90;77.02
66670;DHT22;53568;52.164;4.472;2023-11-22T08:35:55;7.98;76.82
66670;DHT22;53568;52.164;4.472;2023-11-22T08:38:25;8.01;76.54
66670;DHT22;53568;52.164;4.472;2023-11-22T08:40:53;7.95;76.22
66670;DHT22;53568;52.164;4.472;2023-11-22T08:43:20;7.87;76.90
66670;DHT22;53568;52.164;4.472;2023-11-22T08:45:51;7.93;76.59
66670;DHT22;53568;52.164;4.472;2023-11-22T08:48:17;7.93;76.67
66670;DHT22;53568;52.164;4.472;2023-11-22T08:50:43;7.93;77.06
66670;DHT22;53568;52.164;4.472;2023-11-22T08:53:10;7.97;76.97
66670;DHT22;53568;52.164;4.472;2023-11-22T08:55:35;7.99;77.22
66670;DHT22;53568;52.164;4.472;2023-11-22T08:58:01;8.01;77.15
66670;DHT22;53568;52.164;4.472;2023-11-22T09:00:27;8.08;76.99
66670;DHT22;53568;52.164;4.472;2023-11-22T09:02:54;8.17;76.82
66670;DHT22;53568;52.164;4.472;2023-11-22T09:05:23;8.27;76.86
66670;DHT22;53568;52.164;4.472;2023-11-22T09:07:48;8.34;76.50
66670;DHT22;53568;52.164;4.472;2023-11-22T09:10:14;8.32;76.44
66670;DHT22;53568;52.164;4.472;2023-11-22T09:12:42;8.28;76.56
66670;DHT22;53568;52.164;4.472;2023-11-22T09:15:11;8.37;76.50
66670;DHT22;53568;52.164;4.472;2023-11-22T09:17:38;8.37;76.16
66670;DHT22;53568;52.164;4.472;2023-11-22T09:20:18;8.39;76.13
66670;DHT22;53568;52.164;4.472;2023-11-22T09:22:50;8.38;76.39
66670;DHT22;53568;52.164;4.472;2023-11-22T09:25:25;8.46;76.51
66670;DHT22;53568;52.164;4.472;2023-11-22T09:27:52;8.42;76.38
66670;DHT22;53568;52.164;4.472;2023-11-22T09:30:22;8.56;76.39
66670;DHT22;53568;52.164;4.472;2023-11-22T09:33:10;8.62;75.99
66670;DHT22;53568;52.164;4.472;2023-11-22T09:35:37;8.66;75.81
66670;DHT22;53568;52.164;4.472;2023-11-22T09:38:05;8.71;75.79
66670;DHT22;53568;52.164;4.472;2023-11-22T09:40:34;8.53;75.61
66670;DHT22;53568;52.164;4.472;2023-11-22T09:43:02;8.59;75.71
66670;DHT22;53568;52.164;4.472;2023-11-22T09:45:29;8.52;75.86
66670;DHT22;53568;52.164;4.472;2023-11-22T09:47:56;8.52;75.88
66670;DHT22;53568;52.164;4.472;2023-11-22T09:56:11;8.56;75.99
66670;DHT22;53568;52.164;4.472;2023-11-22T09:58:41;8.59;76.16
66670;DHT22;53568;52.164;4.472;2023-11-22T10:01:13;8.79;76.06
66670;DHT22;53568;52.164;4.472;2023-11-22T10:03:39;8.87;76.05
66670;DHT22;53568;52.164;4.472;2023-11-22T10:06:06;8.95;75.64
66670;DHT22;53568;52.164;4.472;2023-11-22T10:08:32;8.86;75.78
66670;DHT22;53568;52.164;4.472;2023-11-22T10:10:59;8.87;76.18
66670;DHT22;53568;52.164;4.472;2023-11-22T10:13:25;8.97;76.03
66670;DHT22;53568;52.164;4.472;2023-11-22T10:15:52;8.92;76.22
66670;DHT22;53568;52.164;4.472;2023-11-22T10:18:19;8.96;76.42
66670;DHT22;53568;52.164;4.472;2023-11-22T10:20:47;8.86;76.96
66670;DHT22;53568;52.164;4.472;2023-11-22T10:23:14;8.90;76.99
66670;DHT22;53568;52.164;4.472;2023-11-22T10:25:51;8.95;76.60
66670;DHT22;53568;52.164;4.472;2023-11-22T10:28:21;9.06;76.39
66670;DHT22;53568;52.164;4.472;2023-11-22T10:30:49;9.16;76.30
66670;DHT22;53568;52.164;4.472;2023-11-22T10:33:15;9.19;75.63
66670;DHT22;53568;52.164;4.472;2023-11-22T10:35:46;9.10;76.19
66670;DHT22;53568;52.164;4.472;2023-11-22T10:38:15;9.19;76.14
66670;DHT22;53568;52.164;4.472;2023-11-22T10:40:41;9.20;75.94
66670;DHT22;53568;52.164;4.472;2023-11-22T10:43:12;9.15;75.97
66670;DHT22;53568;52.164;4.472;2023-11-22T10:45:37;9.07;76.06
66670;DHT22;53568;52.164;4.472;2023-11-22T10:48:05;9.23;75.61
66670;DHT22;53568;52.164;4.472;2023-11-22T10:50:31;9.12;76.03
66670;DHT22;53568;52.164;4.472;2023-11-22T10:52:58;9.10;76.17
66670;DHT22;53568;52.164;4.472;2023-11-22T10:55:32;9.17;75.99
66670;DHT22;53568;52.164;4.472;2023-11-22T10:58:04;9.24;75.62
66670;DHT22;53568;52.164;4.472;2023-11-22T11:00:32;9.28;75.34
66670;DHT22;53568;52.164;4.472;2023-11-22T11:03:01;9.26;75.67
66670;DHT22;53568;52.164;4.472;2023-11-22T11:05:31;9.37;75.44
66670;DHT22;53568;52.164;4.472;2023-11-22T11:08:03;9.44;74.97
66670;DHT22;53568;52.164;4.472;2023-11-22T11:10:42;9.20;74.60
66670;DHT22;53568;52.164;4.472;2023-11-22T11:13:09;9.23;74.42
66670;DHT22;53568;52.164;4.472;2023-11-22T11:15:40;9.23;74.32
66670;DHT22;53568;52.164;4.472;2023-11-22T11:18:14;9.34;74.10
66670;DHT22;53568;52.164;4.472;2023-11-22T11:20:57;9.28;74.38
66670;DHT22;53568;52.164;4.472;2023-11-22T11:23:26;9.38;74.26
66670;DHT22;53568;52.164;4.472;2023-11-22T11:25:58;9.33;73.84
66670;DHT22;53568;52.164;4.472;2023-11-22T11:28:25;9.28;73.94
66670;DHT22;53568;52.164;4.472;2023-11-22T11:30:56;9.44;73.83
66670;DHT22;53568;52.164;4.472;2023-11-22T11:33:36;9.47;73.59
66670;DHT22;53568;52.164;4.472;2023-11-22T11:36:24;9.52;73.42
66670;DHT22;53568;52.164;4.472;2023-11-22T11:38:55;9.58;73.41
66670;DHT22;53568;52.164;4.472;2023-11-22T11:41:47;9.57;73.30
66670;DHT22;53568;52.164;4.472;2023-11-22T11:44:12;9.55;73.17
66670;DHT22;53568;52.164;4.472;2023-11-22T11:46:39;9.62;72.98
66670;DHT22;53568;52.164;4.472;2023-11-22T11:49:12;9.74;72.84
66670;DHT22;53568;52.164;4.472;2023-11-22T11:51:39;9.73;72.86
66670;DHT22;53568;52.164;4.472;2023-11-22T11:54:05;9.65;72.92
66670;DHT22;53568;52.164;4.472;2023-11-22T11:56:31;9.65;73.03
66670;DHT22;53568;52.164;4.472;2023-11-22T11:58:58;9.70;73.06
66670;DHT22;53568;52.164;4.472;2023-11-22T12:01:28;9.54;72.97
66670;DHT22;53568;52.164;4.472;2023-11-22T12:03:55;9.73;72.56
66670;DHT22;53568;52.164;4.472;2023-11-22T12:06:21;9.80;72.79
66670;DHT22;53568;52.164;4.472;2023-11-22T12:08:47;9.90;72.55
66670;DHT22;53568;52.164;4.472;2023-11-22T12:11:13;9.94;72.44
66670;DHT22;53568;52.164;4.472;2023-11-22T12:13:39;9.87;72.79
66670;DHT22;53568;52.164;4.472;2023-11-22T12:16:09;9.97;72.61
66670;DHT22;53568;52.164;4.472;2023-11-22T12:21:08;10.16;72.05
66670;DHT22;53568;52.164;4.472;2023-11-22T12:23:38;10.19;71.84
66670;DHT22;53568;52.164;4.472;2023-11-22T12:26:10;10.31;71.19
66670;DHT22;53568;52.164;4.472;2023-11-22T12:28:39;10.29;70.70
66670;DHT22;53568;52.164;4.472;2023-11-22T12:31:15;10.35;70.79
66670;DHT22;53568;52.164;4.472;2023-11-22T12:33:42;10.39;70.31
66670;DHT22;53568;52.164;4.472;2023-11-22T12:36:09;10.32;69.65
66670;DHT22;53568;52.164;4.472;2023-11-22T12:38:38;10.28;69.52
66670;DHT22;53568;52.164;4.472;2023-11-22T12:41:05;10.28;69.25
66670;DHT22;53568;52.164;4.472;2023-11-22T12:43:32;10.24;68.64
66670;DHT22;53568;52.164;4.472;2023-11-22T12:46:03;10.24;68.19
66670;DHT22;53568;52.164;4.472;2023-11-22T12:48:29;10.15;68.58
66670;DHT22;53568;52.164;4.472;2023-11-22T12:50:56;10.14;68.65
66670;DHT22;53568;52.164;4.472;2023-11-22T12:53:23;10.16;68.77
66670;DHT22;53568;52.164;4.472;2023-11-22T12:55:52;10.24;68.43
66670;DHT22;53568;52.164;4.472;2023-11-22T12:58:23;10.16;68.63
66670;DHT22;53568;52.164;4.472;2023-11-22T13:00:51;10.22;68.48
66670;DHT22;53568;52.164;4.472;2023-11-22T13:03:19;10.16;68.88
66670;DHT22;53568;52.164;4.472;2023-11-22T13:05:45;10.12;68.76
66670;DHT22;53568;52.164;4.472;2023-11-22T13:08:12;10.06;69.26
66670;DHT22;53568;52.164;4.472;2023-11-22T13:10:50;10.12;69.04
66670;DHT22;53568;52.164;4.472;2023-11-22T13:13:23;10.02;69.30
66670;DHT22;53568;52.164;4.472;2023-11-22T13:15:49;10.05;69.72
66670;DHT22;53568;52.164;4.472;2023-11-22T13:18:16;10.12;69.49
66670;DHT22;53568;52.164;4.472;2023-11-22T13:20:42;10.15;69.76
66670;DHT22;53568;52.164;4.472;2023-11-22T13:23:09;10.14;69.80
66670;DHT22;53568;52.164;4.472;2023-11-22T13:25:35;10.12;69.84
66670;DHT22;53568;52.164;4.472;2023-11-22T13:28:00;10.09;69.85
66670;DHT22;53568;52.164;4.472;2023-11-22T13:30:26;10.09;70.17
66670;DHT22;53568;52.164;4.472;2023-11-22T13:32:53;10.01;70.05
66670;DHT22;53568;52.164;4.472;2023-11-22T13:35:22;10.04;70.47
66670;DHT22;53568;52.164;4.472;2023-11-22T13:37:48;10.11;70.46
66670;DHT22;53568;52.164;4.472;2023-11-22T13:40:15;10.04;70.49
66670;DHT22;53568;52.164;4.472;2023-11-22T13:42:46;10.09;70.42
66670;DHT22;53568;52.164;4.472;2023-11-22T13:45:14;10.04;70.68
66670;DHT22;53568;52.164;4.472;2023-11-22T13:47:44;10.01;70.81
66670;DHT22;53568;52.164;4.472;2023-11-22T13:50:15;10.06;70.76
66670;DHT22;53568;52.164;4.472;2023-11-22T13:52:54;10.05;70.79
66670;DHT22;53568;52.164;4.472;2023-11-22T13:55:20;10.02;70.95
66670;DHT22;53568;52.164;4.472;2023-11-22T13:57:50;9.99;71.40
66670;DHT22;53568;52.164;4.472;2023-11-22T14:00:17;10.02;71.35
66670;DHT22;53568;52.164;4.472;2023-11-22T14:02:56;10.05;71.44
66670;DHT22;53568;52.164;4.472;2023-11-22T14:05:23;10.05;71.36
66670;DHT22;53568;52.164;4.472;2023-11-22T14:07:48;9.98;71.81
66670;DHT22;53568;52.164;4.472;2023-11-22T14:10:14;10.01;71.85
66670;DHT22;53568;52.164;4.472;2023-11-22T14:12:42;9.84;72.32
66670;DHT22;53568;52.164;4.472;2023-11-22T14:15:10;9.99;71.94
66670;DHT22;53568;52.164;4.472;2023-11-22T14:17:36;9.92;72.20
66670;DHT22;53568;52.164;4.472;2023-11-22T14:20:03;9.91;72.65
66670;DHT22;53568;52.164;4.472;2023-11-22T14:22:30;9.97;72.57
66670;DHT22;53568;52.164;4.472;2023-11-22T14:24:57;9.82;73.01
66670;DHT22;53568;52.164;4.472;2023-11-22T14:27:23;9.91;72.83
66670;DHT22;53568;52.164;4.472;2023-11-22T14:29:49;9.82;73.24
66670;DHT22;53568;52.164;4.472;2023-11-22T14:32:16;9.87;73.29
66670;DHT22;53568;52.164;4.472;2023-11-22T14:34:42;9.95;73.25
66670;DHT22;53568;52.164;4.472;2023-11-22T14:37:09;9.85;73.67
66670;DHT22;53568;52.164;4.472;2023-11-22T14:39:35;9.80;73.97
66670;DHT22;53568;52.164;4.472;2023-11-22T14:42:01;9.82;74.03
66670;DHT22;53568;52.164;4.472;2023-11-22T14:44:27;9.95;73.67
66670;DHT22;53568;52.164;4.472;2023-11-22T14:46:52;9.92;73.75
66670;DHT22;53568;52.164;4.472;2023-11-22T14:49:18;9.91;74.00
66670;DHT22;53568;52.164;4.472;2023-11-22T14:51:46;9.98;73.78
66670;DHT22;53568;52.164;4.472;2023-11-22T14:54:12;9.99;73.67
66670;DHT22;53568;52.164;4.472;2023-11-22T14:56:37;10.05;73.38
66670;DHT22;53568;52.164;4.472;2023-11-22T14:59:04;9.99;73.46
66670;DHT22;53568;52.164;4.472;2023-11-22T15:01:29;9.90;73.75
66670;DHT22;53568;52.164;4.472;2023-11-22T15:03:55;9.98;73.85
66670;DHT22;53568;52.164;4.472;2023-11-22T15:06:21;9.92;73.93
66670;DHT22;53568;52.164;4.472;2023-11-22T15:08:47;9.94;73.55
66670;DHT22;53568;52.164;4.472;2023-11-22T15:11:13;9.84;73.91
66670;DHT22;53568;52.164;4.472;2023-11-22T15:13:41;9.94;73.95
66670;DHT22;53568;52.164;4.472;2023-11-22T15:16:07;9.99;73.56
66670;DHT22;53568;52.164;4.472;2023-11-22T15:18:33;10.01;73.14
66670;DHT22;53568;52.164;4.472;2023-11-22T15:20:58;9.98;72.78
66670;DHT22;53568;52.164;4.472;2023-11-22T15:23:24;9.90;72.99
66670;DHT22;53568;52.164;4.472;2023-11-22T15:25:49;9.91;72.65
66670;DHT22;53568;52.164;4.472;2023-11-22T15:28:15;9.91;72.82
66670;DHT22;53568;52.164;4.472;2023-11-22T15:30:48;9.82;73.14
66670;DHT22;53568;52.164;4.472;2023-11-22T15:33:24;9.70;73.26
66670;DHT22;53568;52.164;4.472;2023-11-22T15:35:49;9.74;72.91
66670;DHT22;53568;52.164;4.472;2023-11-22T15:38:15;9.73;72.87
66670;DHT22;53568;52.164;4.472;2023-11-22T15:40:41;9.78;72.79
66670;DHT22;53568;52.164;4.472;2023-11-22T15:43:08;9.71;73.08
66670;DHT22;53568;52.164;4.472;2023-11-22T15:45:34;9.80;73.09
66670;DHT22;53568;52.164;4.472;2023-11-22T15:48:01;9.80;73.11
66670;DHT22;53568;52.164;4.472;2023-11-22T15:50:28;9.80;73.07
66670;DHT22;53568;52.164;4.472;2023-11-22T15:52:54;9.82;72.99